Liyang, China
Current Conditions -  °F | °C
As of 11:00 PM on Tuesday 21 Oct 2014 (Local Time) from ZSNJ Reporting Station
Haze Haze  
Wind Chill: 61°   Ceiling: 1700
Heat Index: 61°   Visibility: 1.5mi
Dew Point: 59°   Wind: 4mph
Humidity: 94%   Direction: 330°NNW
Pressure: 30.18"   Gusts: NA
Location:  31.43°N, 119.48°E
Report Text: ZSNJ 211500Z 33002MPS 2500 BR BKN017 16/15 Q1022 NOSIG
Loading
Personal Weather Stations






























Interactive Weather Map
Tropical Storm Tracking
New forecast layout! Learn more

10-Day Weather Forecast

Advertisements
Track Severe Weather on mobile